Time;durP1;ratioP1;P1;durP2;ratioP2;P2;SDS_P1;SDS_P2;PMS_P1;PMS_P2;Temp;Humidity;BMP_temperature;BMP_pressure;BME280_temperature;BME280_humidity;BME280_pressure;Samples;Min_cycle;Max_cycle;Signal;HPM_P1;HPM_P2
2023/02/19 00:01:42;;;;;;;7.35;5.80;;;9.30;99.90;;;;;;5053406;28;20684;-66
2023/02/19 00:04:12;;;;;;;6.00;5.15;;;9.30;99.90;;;;;;5053760;28;20232;-68
2023/02/19 00:06:39;;;;;;;9.77;6.55;;;9.30;99.90;;;;;;5053239;28;20673;-67
2023/02/19 00:09:06;;;;;;;12.15;5.63;;;9.30;99.90;;;;;;5053311;28;20213;-64
2023/02/19 00:11:34;;;;;;;7.25;5.40;;;9.30;99.90;;;;;;5052876;28;20569;-67
2023/02/19 00:14:03;;;;;;;11.05;5.40;;;9.30;99.90;;;;;;5053049;28;20221;-67
2023/02/19 00:16:32;;;;;;;8.65;6.32;;;9.30;99.90;;;;;;5052840;28;20593;-66
2023/02/19 00:19:01;;;;;;;12.00;5.75;;;9.30;99.90;;;;;;5052825;28;20666;-66
2023/02/19 00:21:27;;;;;;;7.85;5.90;;;9.30;99.90;;;;;;5052854;28;20202;-67
2023/02/19 00:23:57;;;;;;;11.63;6.28;;;9.40;99.90;;;;;;5053081;28;20221;-65
2023/02/19 00:26:24;;;;;;;6.43;5.38;;;9.40;99.90;;;;;;5054321;28;20217;-67
2023/02/19 00:28:52;;;;;;;9.10;4.45;;;9.40;99.90;;;;;;5057343;28;20209;-67
2023/02/19 00:31:22;;;;;;;7.30;5.47;;;9.40;99.90;;;;;;5057062;28;20214;-66
2023/02/19 00:33:51;;;;;;;7.70;5.28;;;9.40;99.90;;;;;;5056743;28;20233;-67
2023/02/19 00:36:19;;;;;;;10.93;5.25;;;9.40;99.90;;;;;;5056762;28;20206;-67
2023/02/19 00:38:46;;;;;;;8.38;4.93;;;9.40;99.90;;;;;;5056836;28;20692;-66
2023/02/19 00:41:20;;;;;;;6.90;4.80;;;9.40;99.90;;;;;;5057205;28;20198;-65
2023/02/19 00:43:49;;;;;;;6.80;5.03;;;9.40;99.90;;;;;;5057138;28;20227;-66
2023/02/19 00:46:17;;;;;;;8.32;5.30;;;9.40;99.90;;;;;;5056799;28;20194;-67
2023/02/19 00:48:45;;;;;;;11.40;6.00;;;9.40;99.90;;;;;;5056884;28;20209;-67
2023/02/19 00:51:12;;;;;;;11.43;6.85;;;9.40;99.90;;;;;;5056861;28;20202;-68
2023/02/19 00:53:39;;;;;;;9.27;6.97;;;9.30;99.90;;;;;;5056798;28;20201;-68
2023/02/19 00:56:07;;;;;;;12.85;8.20;;;9.20;99.90;;;;;;5056625;28;20596;-69
2023/02/19 00:58:33;;;;;;;16.52;7.25;;;9.10;99.90;;;;;;5056616;28;20210;-68
2023/02/19 01:01:00;;;;;;;12.68;9.32;;;9.00;99.90;;;;;;5056972;28;20216;-68
2023/02/19 01:03:27;;;;;;;11.25;8.50;;;9.00;99.90;;;;;;5056271;28;20198;-69
2023/02/19 01:05:55;;;;;;;12.93;9.52;;;9.00;99.90;;;;;;5056424;28;20212;-68
2023/02/19 01:08:22;;;;;;;18.42;10.27;;;8.90;99.90;;;;;;5056300;28;20209;-68
2023/02/19 01:10:49;;;;;;;12.07;8.98;;;8.90;99.90;;;;;;5056622;28;20225;-67
2023/02/19 01:13:16;;;;;;;16.90;10.85;;;8.90;99.90;;;;;;5056356;28;20206;-68
2023/02/19 01:15:43;;;;;;;19.00;11.73;;;8.90;99.90;;;;;;5056447;28;20233;-68
2023/02/19 01:18:11;;;;;;;15.18;11.50;;;8.90;99.90;;;;;;5056477;28;20201;-66
2023/02/19 01:20:41;;;;;;;20.90;11.63;;;8.90;99.90;;;;;;5056259;28;20210;-67
2023/02/19 01:23:11;;;;;;;22.50;12.10;;;8.90;99.90;;;;;;5056001;28;20206;-67
2023/02/19 01:25:39;;;;;;;15.65;10.90;;;8.90;99.90;;;;;;5056489;28;20233;-66
2023/02/19 01:28:05;;;;;;;18.45;11.55;;;8.80;99.90;;;;;;5056233;28;20205;-69
2023/02/19 01:30:35;;;;;;;20.67;10.98;;;8.80;99.90;;;;;;5055999;28;20207;-69
2023/02/19 01:33:02;;;;;;;12.85;8.00;;;8.80;99.90;;;;;;5055980;28;20207;-67
2023/02/19 01:35:29;;;;;;;12.10;7.68;;;8.80;99.90;;;;;;5055481;28;20281;-65
2023/02/19 01:37:56;;;;;;;12.73;7.20;;;8.70;99.90;;;;;;5054924;28;20292;-66
2023/02/19 01:40:25;;;;;;;11.32;5.72;;;8.60;99.90;;;;;;5055434;28;20216;-69
2023/02/19 01:42:52;;;;;;;5.43;4.53;;;8.60;99.90;;;;;;5055797;28;20254;-66
2023/02/19 01:45:26;;;;;;;3.33;2.70;;;8.40;99.90;;;;;;5055618;28;20229;-67
2023/02/19 01:48:01;;;;;;;5.18;3.17;;;8.40;99.90;;;;;;5055249;28;20632;-68
2023/02/19 01:50:31;;;;;;;4.40;2.80;;;8.30;99.90;;;;;;5055454;28;20191;-69
2023/02/19 01:53:03;;;;;;;5.50;2.80;;;8.30;99.90;;;;;;5055372;28;20212;-68
2023/02/19 01:55:32;;;;;;;2.80;2.20;;;8.20;99.90;;;;;;5055593;28;20259;-69
2023/02/19 01:57:59;;;;;;;3.65;1.98;;;8.10;99.90;;;;;;5054606;28;20693;-69
2023/02/19 02:00:27;;;;;;;3.30;2.08;;;8.10;99.90;;;;;;5054927;28;20291;-69
2023/02/19 02:02:57;;;;;;;1.25;1.10;;;8.10;99.90;;;;;;5054606;28;20679;-70
2023/02/19 02:05:37;;;;;;;2.30;1.60;;;8.00;99.90;;;;;;5054842;28;20239;-69
2023/02/19 02:10:52;;;;;;;1.60;1.40;;;7.80;99.90;;;;;;5058025;28;20261;-68
2023/02/19 02:13:19;;;;;;;3.00;2.10;;;7.80;99.90;;;;;;5055911;28;20219;-68
2023/02/19 02:15:53;;;;;;;2.17;1.60;;;7.80;99.90;;;;;;5054552;28;20704;-67
2023/02/19 02:18:40;;;;;;;1.55;1.30;;;7.80;99.90;;;;;;5054961;28;20192;-68
2023/02/19 02:21:35;;;;;;;2.13;1.60;;;7.70;99.90;;;;;;5054799;28;20546;-69
2023/02/19 02:24:19;;;;;;;1.92;1.60;;;7.70;99.90;;;;;;5054607;28;20224;-69
2023/02/19 02:27:12;;;;;;;2.20;1.77;;;7.70;99.90;;;;;;5054903;28;20192;-69
2023/02/19 02:30:10;;;;;;;3.38;1.65;;;7.70;99.90;;;;;;5054396;28;20188;-69
2023/02/19 02:32:52;;;;;;;2.13;1.42;;;7.70;99.90;;;;;;5054168;28;20579;-69
2023/02/19 02:35:21;;;;;;;2.17;1.98;;;7.70;99.90;;;;;;5054162;28;20294;-69
2023/02/19 02:37:49;;;;;;;3.85;2.20;;;7.70;99.90;;;;;;5054401;28;20227;-70
2023/02/19 02:40:17;;;;;;;3.65;2.40;;;7.70;99.90;;;;;;5055158;28;20224;-69
2023/02/19 02:42:44;;;;;;;5.13;3.38;;;7.70;99.90;;;;;;5054304;28;20204;-70
2023/02/19 02:45:37;;;;;;;6.47;3.47;;;7.70;99.90;;;;;;5054358;28;20224;-69
2023/02/19 02:48:19;;;;;;;5.47;3.10;;;7.70;99.90;;;;;;5053931;28;20276;-70
2023/02/19 02:50:52;;;;;;;9.32;4.38;;;7.70;99.90;;;;;;5053205;28;20184;-69
2023/02/19 02:56:09;;;;;;;7.32;4.75;;;7.80;99.90;;;;;;5054489;28;20180;-69
2023/02/19 02:58:37;;;;;;;11.98;6.43;;;7.80;99.90;;;;;;5054128;28;20209;-68
2023/02/19 03:03:59;;;;;;;10.00;6.55;;;8.00;99.90;;;;;;5053849;28;20223;-69
2023/02/19 03:06:29;;;;;;;11.60;7.63;;;8.00;99.90;;;;;;5054137;28;20185;-69
2023/02/19 03:09:01;;;;;;;11.95;8.18;;;8.10;99.90;;;;;;5053936;28;20212;-68
2023/02/19 03:19:58;;;;;;;12.98;8.10;;;8.40;99.90;;;;;;5053920;28;20188;-69
2023/02/19 03:22:27;;;;;;;13.30;8.82;;;8.40;99.90;;;;;;5053919;28;20204;-68
2023/02/19 03:27:44;;;;;;;4.00;1.92;;;8.30;99.90;;;;;;5053429;28;20705;-69
2023/02/19 03:30:16;;;;;;;2.25;1.88;;;8.00;99.90;;;;;;5053501;28;20560;-68
2023/02/19 03:32:48;;;;;;;2.13;1.65;;;7.70;99.90;;;;;;5053743;28;20193;-69
2023/02/19 03:35:19;;;;;;;1.90;1.50;;;7.40;99.90;;;;;;5053178;28;20227;-69
2023/02/19 03:37:50;;;;;;;3.85;1.13;;;7.20;99.90;;;;;;5053232;28;20219;-69
2023/02/19 03:40:17;;;;;;;2.00;1.58;;;7.00;99.90;;;;;;5053829;28;20274;-69
2023/02/19 03:42:54;;;;;;;1.05;0.95;;;6.90;99.90;;;;;;5053193;28;20214;-69
2023/02/19 03:45:30;;;;;;;1.45;0.98;;;6.80;99.90;;;;;;5054145;28;20235;-68
2023/02/19 03:48:17;;;;;;;1.10;0.90;;;6.70;99.90;;;;;;5058086;28;20567;-69
2023/02/19 03:50:50;;;;;;;1.00;0.90;;;6.60;99.90;;;;;;5053176;28;20198;-69
2023/02/19 03:53:25;;;;;;;1.25;1.05;;;6.60;99.90;;;;;;5053163;28;20203;-69
2023/02/19 03:56:02;;;;;;;1.40;1.10;;;6.50;99.90;;;;;;5053121;28;20199;-70
2023/02/19 03:58:35;;;;;;;2.05;1.40;;;6.50;99.90;;;;;;5053007;28;20210;-69
2023/02/19 04:01:07;;;;;;;2.47;1.70;;;6.50;99.90;;;;;;5053535;28;20210;-69
2023/02/19 04:03:41;;;;;;;1.52;1.25;;;6.50;99.90;;;;;;5052929;28;20268;-70
2023/02/19 04:06:13;;;;;;;5.43;1.63;;;6.50;99.90;;;;;;5053117;28;20194;-69
2023/02/19 04:11:16;;;;;;;1.67;1.13;;;6.40;99.90;;;;;;5109604;27;1340483;-70
2023/02/19 04:13:45;;;;;;;1.23;1.13;;;6.40;99.90;;;;;;5129960;28;20298;-67
2023/02/19 04:16:17;;;;;;;2.10;1.20;;;6.40;99.90;;;;;;5111917;28;20199;-68
2023/02/19 04:18:49;;;;;;;1.63;1.42;;;6.30;99.90;;;;;;5111609;28;20639;-70
2023/02/19 04:21:18;;;;;;;1.30;1.20;;;6.30;99.90;;;;;;5110842;28;20186;-69
2023/02/19 04:23:46;;;;;;;2.42;1.27;;;6.20;99.90;;;;;;5110391;28;20216;-68
2023/02/19 04:26:16;;;;;;;1.88;1.52;;;6.20;99.90;;;;;;5111344;28;20200;-70
2023/02/19 04:28:43;;;;;;;1.45;1.25;;;6.20;99.90;;;;;;5110792;28;20215;-69
2023/02/19 04:31:11;;;;;;;2.15;1.65;;;6.10;99.90;;;;;;5111346;28;20224;-70
2023/02/19 04:33:38;;;;;;;2.08;1.45;;;6.10;99.90;;;;;;5110916;28;20597;-70
2023/02/19 04:36:05;;;;;;;1.42;1.30;;;6.10;99.90;;;;;;5101028;22;20239;-64
2023/02/19 04:38:32;;;;;;;1.92;1.10;;;6.00;99.90;;;;;;5069785;28;20200;-63
2023/02/19 04:40:58;;;;;;;1.27;1.05;;;6.00;99.90;;;;;;5069786;28;20200;-63
2023/02/19 04:43:26;;;;;;;1.40;1.15;;;6.00;99.90;;;;;;5069634;28;20214;-63
2023/02/19 04:45:53;;;;;;;0.68;0.65;;;6.00;99.90;;;;;;5081810;28;20225;-62
2023/02/19 04:48:20;;;;;;;0.93;0.80;;;5.90;99.90;;;;;;5090418;28;20200;-64
2023/02/19 04:50:47;;;;;;;0.80;0.70;;;5.90;99.90;;;;;;5090334;28;20216;-65
2023/02/19 04:53:13;;;;;;;1.75;1.30;;;5.80;99.90;;;;;;5089949;28;20197;-64
2023/02/19 04:55:40;;;;;;;0.80;0.80;;;5.80;99.90;;;;;;5090096;28;20568;-64
2023/02/19 04:58:07;;;;;;;1.20;0.80;;;5.70;99.90;;;;;;5089641;28;20211;-64
2023/02/19 05:00:35;;;;;;;0.65;0.65;;;5.70;99.90;;;;;;5090138;28;20200;-63
2023/02/19 05:03:02;;;;;;;0.80;0.75;;;5.60;99.90;;;;;;5090077;28;20294;-63
2023/02/19 05:05:29;;;;;;;1.20;0.77;;;5.60;99.90;;;;;;5089815;28;20220;-64
2023/02/19 05:07:55;;;;;;;0.80;0.73;;;5.60;99.90;;;;;;5089365;28;20208;-64
2023/02/19 05:10:22;;;;;;;0.88;0.77;;;5.60;99.90;;;;;;5090165;28;20229;-62
2023/02/19 05:12:49;;;;;;;0.95;0.80;;;5.60;99.90;;;;;;5090000;28;20203;-63
2023/02/19 05:15:16;;;;;;;1.10;1.00;;;5.60;99.90;;;;;;5089377;28;20227;-63
2023/02/19 05:17:44;;;;;;;1.40;0.95;;;5.50;99.90;;;;;;5089434;28;20570;-63
2023/02/19 05:20:11;;;;;;;1.60;1.10;;;5.50;99.90;;;;;;5089765;28;20211;-64
2023/02/19 05:22:38;;;;;;;0.90;0.80;;;5.40;99.90;;;;;;5075615;28;20200;-65
2023/02/19 05:25:05;;;;;;;1.00;0.90;;;5.40;99.90;;;;;;5076028;28;20226;-63
2023/02/19 05:27:32;;;;;;;1.20;1.00;;;5.40;99.90;;;;;;5076207;28;20201;-64
2023/02/19 05:29:59;;;;;;;1.15;0.93;;;5.40;99.90;;;;;;5076666;28;20672;-64
2023/02/19 05:32:26;;;;;;;1.17;0.98;;;5.30;99.90;;;;;;5076526;28;20550;-64
2023/02/19 05:34:54;;;;;;;1.40;1.27;;;5.30;99.90;;;;;;5075647;28;20223;-63
2023/02/19 05:37:21;;;;;;;1.60;1.00;;;5.30;99.90;;;;;;5076194;28;20193;-64
2023/02/19 05:39:48;;;;;;;1.50;1.10;;;5.20;99.90;;;;;;5076127;28;20203;-63
2023/02/19 05:42:15;;;;;;;1.17;1.08;;;5.20;99.90;;;;;;5076016;28;20199;-63
2023/02/19 05:44:42;;;;;;;1.50;1.40;;;5.20;99.90;;;;;;5076091;28;20211;-65
2023/02/19 05:47:09;;;;;;;1.58;1.40;;;5.20;99.90;;;;;;5075477;28;20655;-64
2023/02/19 05:49:36;;;;;;;1.92;1.20;;;5.20;99.90;;;;;;5075941;28;20224;-63
2023/02/19 05:52:04;;;;;;;1.23;1.13;;;5.10;99.90;;;;;;5075534;28;20204;-64
2023/02/19 05:54:32;;;;;;;1.70;1.60;;;5.10;99.90;;;;;;5075680;28;20204;-64
2023/02/19 05:56:58;;;;;;;2.13;1.73;;;5.00;99.90;;;;;;5075564;28;20205;-64
2023/02/19 05:59:26;;;;;;;4.55;1.90;;;5.00;99.90;;;;;;5075488;28;20204;-65
2023/02/19 06:01:54;;;;;;;1.70;1.60;;;4.90;99.90;;;;;;5075584;28;20212;-64
2023/02/19 06:04:22;;;;;;;2.53;1.80;;;4.90;99.90;;;;;;5075681;28;20201;-63
2023/02/19 06:06:49;;;;;;;1.90;1.45;;;4.90;99.90;;;;;;5075473;28;20231;-63
2023/02/19 06:09:17;;;;;;;3.05;1.40;;;5.00;99.90;;;;;;5075097;28;20214;-63
2023/02/19 06:11:45;;;;;;;2.55;1.50;;;5.00;99.90;;;;;;5075585;28;20220;-63
2023/02/19 06:14:13;;;;;;;1.40;1.23;;;4.90;99.90;;;;;;5075065;28;20211;-64
2023/02/19 06:16:40;;;;;;;1.95;1.30;;;4.90;99.90;;;;;;5076345;28;20231;-64
2023/02/19 06:19:06;;;;;;;1.75;1.48;;;4.70;99.90;;;;;;5075258;28;20204;-64
2023/02/19 06:21:33;;;;;;;1.20;1.10;;;4.60;99.90;;;;;;5074418;28;20566;-64
2023/02/19 06:24:05;;;;;;;1.25;1.15;;;4.60;99.90;;;;;;5074812;28;20207;-63
2023/02/19 06:26:34;;;;;;;0.80;0.80;;;4.50;99.90;;;;;;5074747;28;20275;-64
2023/02/19 06:29:01;;;;;;;1.45;0.80;;;4.40;99.90;;;;;;5074578;28;20220;-63
2023/02/19 06:31:27;;;;;;;2.22;1.30;;;4.30;99.90;;;;;;5074527;28;20245;-63
2023/02/19 06:33:54;;;;;;;2.65;1.58;;;4.30;99.90;;;;;;5073863;28;20203;-63
2023/02/19 06:36:22;;;;;;;1.98;1.23;;;4.20;99.90;;;;;;5074519;28;20711;-64
2023/02/19 06:38:49;;;;;;;4.55;1.58;;;4.20;99.90;;;;;;5074820;28;20206;-63
2023/02/19 06:41:16;;;;;;;1.60;1.10;;;4.10;99.90;;;;;;5074686;28;20226;-63
2023/02/19 06:43:45;;;;;;;3.05;1.40;;;4.10;99.90;;;;;;5074386;28;20206;-63
2023/02/19 06:46:13;;;;;;;1.40;1.00;;;4.10;99.90;;;;;;5074189;28;20260;-63
2023/02/19 06:48:43;;;;;;;2.85;1.20;;;4.00;99.90;;;;;;5074563;28;20231;-64
2023/02/19 06:51:11;;;;;;;3.10;1.90;;;4.00;99.90;;;;;;5074617;28;20234;-64
2023/02/19 06:53:38;;;;;;;1.60;1.20;;;4.00;99.90;;;;;;5074573;28;20242;-63
2023/02/19 06:56:07;;;;;;;1.67;1.58;;;3.90;99.90;;;;;;5074294;28;20731;-64
2023/02/19 06:58:34;;;;;;;2.00;1.60;;;3.90;99.90;;;;;;5074394;28;20209;-64
2023/02/19 07:01:03;;;;;;;2.85;1.70;;;3.90;99.90;;;;;;5075207;28;20663;-63
2023/02/19 07:03:29;;;;;;;3.00;1.90;;;3.80;99.90;;;;;;5075149;28;20290;-63
2023/02/19 07:05:59;;;;;;;2.55;1.98;;;3.80;99.90;;;;;;5074632;28;20223;-63
2023/02/19 07:08:26;;;;;;;2.40;1.70;;;3.80;99.90;;;;;;5074394;28;20202;-64
2023/02/19 07:10:57;;;;;;;6.28;2.10;;;3.80;99.90;;;;;;5074119;28;20235;-63
2023/02/19 07:13:25;;;;;;;2.20;2.00;;;3.80;99.90;;;;;;5074279;28;20208;-64
2023/02/19 07:15:57;;;;;;;1.90;1.73;;;3.80;99.90;;;;;;5074891;28;20227;-64
2023/02/19 07:18:25;;;;;;;2.33;1.92;;;3.80;99.90;;;;;;5073754;28;20647;-63
2023/02/19 07:20:52;;;;;;;2.30;2.10;;;3.80;99.90;;;;;;5074517;28;20208;-63
2023/02/19 07:23:19;;;;;;;2.97;1.65;;;3.80;99.90;;;;;;5074146;28;20202;-63
2023/02/19 07:25:46;;;;;;;2.45;1.95;;;3.80;99.90;;;;;;5073908;28;20794;-64
2023/02/19 07:28:13;;;;;;;2.72;2.10;;;3.80;99.90;;;;;;5073821;28;20203;-63
2023/02/19 07:30:39;;;;;;;2.10;1.90;;;3.80;99.90;;;;;;5073784;28;20234;-64
2023/02/19 07:33:06;;;;;;;2.38;1.88;;;3.90;99.90;;;;;;5073801;28;20693;-63
2023/02/19 07:35:34;;;;;;;2.35;1.92;;;3.90;99.90;;;;;;5073731;28;20225;-63
2023/02/19 07:38:01;;;;;;;2.35;2.15;;;4.00;99.90;;;;;;5073312;28;20214;-63
2023/02/19 07:40:28;;;;;;;3.15;2.05;;;4.00;99.90;;;;;;5073232;28;20200;-64
2023/02/19 07:42:54;;;;;;;2.65;2.10;;;4.00;99.90;;;;;;5074032;28;20209;-64
2023/02/19 07:45:21;;;;;;;2.75;2.38;;;4.00;99.90;;;;;;5073360;28;20223;-64
2023/02/19 07:47:48;;;;;;;4.88;3.40;;;4.10;99.90;;;;;;5073673;28;20206;-63
2023/02/19 07:50:15;;;;;;;4.93;3.63;;;4.10;99.90;;;;;;5073527;28;20626;-63
2023/02/19 07:52:43;;;;;;;3.45;3.03;;;4.10;99.90;;;;;;5072976;28;20708;-65
2023/02/19 07:55:10;;;;;;;4.53;3.72;;;4.00;99.90;;;;;;5074326;28;20251;-63
2023/02/19 07:57:36;;;;;;;4.68;3.72;;;4.00;99.90;;;;;;5073834;28;20308;-64
2023/02/19 08:00:04;;;;;;;7.13;4.10;;;4.00;99.90;;;;;;5073741;28;20273;-64
2023/02/19 08:05:15;;;;;;;5.57;3.58;;;4.10;99.90;;;;;;5073477;28;20222;-64
2023/02/19 08:07:43;;;;;;;5.63;3.70;;;4.20;99.90;;;;;;5074364;28;20612;-64
2023/02/19 08:15:40;;;;;;;3.33;3.03;;;4.40;99.90;;;;;;5073653;28;20223;-65
2023/02/19 08:18:07;;;;;;;4.03;3.42;;;4.40;99.90;;;;;;5073414;28;20697;-64
2023/02/19 08:20:34;;;;;;;5.43;3.90;;;4.40;99.90;;;;;;5073342;28;20195;-64
2023/02/19 08:23:02;;;;;;;6.03;4.43;;;4.40;99.90;;;;;;5073417;28;20207;-64
2023/02/19 08:25:29;;;;;;;4.28;3.53;;;4.30;99.90;;;;;;5073164;28;20231;-66
2023/02/19 08:27:56;;;;;;;3.83;3.38;;;4.40;99.90;;;;;;5073238;28;20199;-63
2023/02/19 08:30:23;;;;;;;4.35;3.35;;;4.40;99.90;;;;;;5073743;28;20317;-64
2023/02/19 08:32:50;;;;;;;5.05;3.22;;;4.50;99.90;;;;;;5073499;28;20216;-67
2023/02/19 08:35:16;;;;;;;5.05;3.67;;;4.50;99.90;;;;;;5074301;28;20235;-64
2023/02/19 08:37:43;;;;;;;4.82;3.50;;;4.50;99.90;;;;;;5075477;28;20181;-64
2023/02/19 08:40:12;;;;;;;5.00;3.88;;;4.60;99.90;;;;;;5073218;28;20676;-65
2023/02/19 08:42:39;;;;;;;5.65;4.10;;;4.60;99.90;;;;;;5073403;28;20204;-64
2023/02/19 08:45:07;;;;;;;5.10;3.92;;;4.70;99.90;;;;;;5073484;28;20219;-65
2023/02/19 08:47:35;;;;;;;4.88;3.20;;;4.80;99.90;;;;;;5073539;28;20284;-65
2023/02/19 08:50:03;;;;;;;5.10;3.33;;;4.80;99.90;;;;;;5073399;28;20261;-65
2023/02/19 08:52:30;;;;;;;4.35;3.30;;;4.90;99.90;;;;;;5073630;28;20229;-68
2023/02/19 08:54:57;;;;;;;7.90;3.70;;;4.90;99.90;;;;;;5073381;28;20737;-68
2023/02/19 08:57:27;;;;;;;3.78;3.15;;;4.90;99.90;;;;;;5076623;28;20625;-67
2023/02/19 08:59:54;;;;;;;4.60;4.15;;;4.90;99.90;;;;;;5077314;28;20202;-67
2023/02/19 09:02:21;;;;;;;5.13;3.70;;;4.90;99.90;;;;;;5076591;28;20199;-66
2023/02/19 09:04:48;;;;;;;4.45;3.78;;;4.90;99.90;;;;;;5076858;28;20230;-65
2023/02/19 09:07:15;;;;;;;5.80;4.72;;;5.00;99.90;;;;;;5076757;28;20291;-67
2023/02/19 09:09:42;;;;;;;5.85;4.00;;;5.00;99.90;;;;;;5077528;28;20579;-65
2023/02/19 09:12:10;;;;;;;4.60;3.42;;;5.10;99.90;;;;;;5076823;28;20223;-67
2023/02/19 09:14:39;;;;;;;5.75;4.35;;;5.20;99.90;;;;;;5077293;28;20204;-67
2023/02/19 09:17:07;;;;;;;8.45;4.90;;;5.30;99.90;;;;;;5076955;28;20299;-67
2023/02/19 09:19:35;;;;;;;12.60;8.30;;;5.40;99.90;;;;;;5076874;28;20239;-66
2023/02/19 09:22:02;;;;;;;14.98;10.30;;;5.50;99.90;;;;;;5077409;28;20204;-65
2023/02/19 09:24:29;;;;;;;11.35;7.50;;;5.60;99.90;;;;;;5077787;28;20199;-66
2023/02/19 09:26:56;;;;;;;11.40;6.80;;;5.50;99.90;;;;;;5078502;28;20210;-68
2023/02/19 09:29:25;;;;;;;10.55;7.60;;;5.50;99.90;;;;;;5078194;28;20547;-66
2023/02/19 09:31:56;;;;;;;10.70;6.95;;;5.50;99.90;;;;;;5077604;28;20220;-67
2023/02/19 09:34:23;;;;;;;9.32;7.10;;;5.50;99.90;;;;;;5077418;28;20193;-66
2023/02/19 09:36:51;;;;;;;13.63;8.02;;;5.60;99.90;;;;;;5077299;28;20232;-67
2023/02/19 09:39:18;;;;;;;13.80;9.20;;;5.70;99.90;;;;;;5079491;28;20240;-68
2023/02/19 09:41:48;;;;;;;17.60;9.05;;;5.80;99.90;;;;;;5077555;28;20669;-67
2023/02/19 09:44:19;;;;;;;11.20;7.38;;;5.90;99.90;;;;;;5077571;28;20625;-67
2023/02/19 09:46:48;;;;;;;9.68;7.05;;;6.10;99.90;;;;;;5076703;28;20225;-67
2023/02/19 09:49:21;;;;;;;9.85;6.78;;;6.10;99.90;;;;;;5076450;28;20212;-67
2023/02/19 09:51:52;;;;;;;9.70;6.47;;;6.00;99.90;;;;;;5076114;28;20731;-67
2023/02/19 09:54:22;;;;;;;8.50;6.78;;;6.00;99.90;;;;;;5076908;28;20220;-69
2023/02/19 09:56:49;;;;;;;9.98;6.07;;;6.00;99.90;;;;;;5077128;28;20228;-67
2023/02/19 09:59:20;;;;;;;8.40;5.85;;;5.90;99.90;;;;;;5078077;28;20231;-68
2023/02/19 10:01:49;;;;;;;5.82;5.10;;;6.00;99.90;;;;;;5075526;28;20638;-67
2023/02/19 10:04:17;;;;;;;4.28;3.83;;;6.20;99.90;;;;;;5075631;28;20204;-67
2023/02/19 10:06:44;;;;;;;7.28;3.83;;;6.50;99.90;;;;;;5075793;28;20221;-67
2023/02/19 10:09:21;;;;;;;4.38;3.25;;;6.50;99.90;;;;;;5075980;28;20708;-67
2023/02/19 10:11:48;;;;;;;5.10;3.50;;;6.30;99.90;;;;;;5076034;28;20214;-67
2023/02/19 10:14:19;;;;;;;6.35;3.65;;;6.20;99.90;;;;;;5076070;28;20223;-66
2023/02/19 10:16:48;;;;;;;4.57;3.53;;;6.10;99.90;;;;;;5076508;28;20217;-67
2023/02/19 10:19:17;;;;;;;4.65;3.42;;;6.10;99.90;;;;;;5075895;28;20208;-67
2023/02/19 10:21:44;;;;;;;6.50;3.17;;;6.40;99.90;;;;;;5075489;28;20649;-66
2023/02/19 10:24:21;;;;;;;3.33;3.03;;;6.60;99.90;;;;;;5075943;28;20209;-67
2023/02/19 10:26:49;;;;;;;3.67;2.45;;;6.80;99.90;;;;;;5076234;28;20221;-67
2023/02/19 10:29:16;;;;;;;4.68;2.85;;;6.70;99.90;;;;;;5075973;28;20205;-67
2023/02/19 10:31:43;;;;;;;4.78;2.63;;;6.60;99.90;;;;;;5076209;28;20220;-67
2023/02/19 10:34:21;;;;;;;4.05;2.95;;;6.50;99.90;;;;;;5076363;28;20224;-66
2023/02/19 10:36:50;;;;;;;4.03;2.42;;;6.60;99.90;;;;;;5075560;28;20220;-65
2023/02/19 10:39:41;;;;;;;3.20;2.10;;;6.70;99.90;;;;;;5066812;22;20234;-66
2023/02/19 10:42:16;;;;;;;3.75;2.22;;;6.80;99.90;;;;;;5036823;28;20190;-67
2023/02/19 10:44:45;;;;;;;3.35;1.88;;;6.90;99.90;;;;;;5035833;28;20543;-68
2023/02/19 10:47:17;;;;;;;3.30;2.20;;;6.90;99.90;;;;;;5036513;28;20202;-67
2023/02/19 10:49:47;;;;;;;3.08;1.90;;;6.80;99.90;;;;;;5053356;28;20246;-68
2023/02/19 10:52:17;;;;;;;7.78;2.13;;;6.80;99.90;;;;;;5055925;28;20281;-67
2023/02/19 10:54:45;;;;;;;2.75;2.42;;;6.80;99.90;;;;;;5055196;28;20198;-67
2023/02/19 10:57:33;;;;;;;3.03;1.42;;;6.90;99.90;;;;;;5055120;28;20259;-67
2023/02/19 11:00:13;;;;;;;5.03;2.20;;;6.80;99.90;;;;;;5055047;28;20226;-68
2023/02/19 11:02:40;;;;;;;4.28;2.60;;;6.80;99.90;;;;;;5055777;28;20212;-68
2023/02/19 11:05:19;;;;;;;2.15;1.60;;;6.80;99.90;;;;;;5055840;28;20201;-68
2023/02/19 11:07:48;;;;;;;5.90;2.60;;;7.00;99.90;;;;;;5055166;28;20186;-66
2023/02/19 11:10:28;;;;;;;5.18;2.38;;;7.10;99.90;;;;;;5055281;28;20206;-68
2023/02/19 11:12:57;;;;;;;3.95;2.00;;;7.00;99.90;;;;;;5055635;28;20217;-68
2023/02/19 11:15:28;;;;;;;1.90;1.45;;;7.00;99.90;;;;;;5055144;28;20208;-68
2023/02/19 11:17:58;;;;;;;2.47;1.58;;;7.10;99.90;;;;;;5054975;28;20192;-67
2023/02/19 11:20:28;;;;;;;3.92;1.45;;;7.20;99.90;;;;;;5054554;28;20578;-68
2023/02/19 11:23:00;;;;;;;3.47;2.10;;;7.20;99.90;;;;;;5055387;28;20208;-68
2023/02/19 11:25:27;;;;;;;2.72;1.30;;;7.20;99.90;;;;;;5054212;28;20652;-68
2023/02/19 11:27:57;;;;;;;4.65;1.60;;;7.20;99.90;;;;;;5055040;28;20673;-68
2023/02/19 11:30:38;;;;;;;3.63;1.50;;;7.10;99.90;;;;;;5057501;28;20281;-67
2023/02/19 11:33:26;;;;;;;3.00;1.65;;;6.90;99.90;;;;;;5057434;28;20218;-68
2023/02/19 11:36:16;;;;;;;1.38;1.27;;;6.90;99.90;;;;;;5054562;28;20674;-67
2023/02/19 11:38:43;;;;;;;2.75;1.55;;;7.10;99.90;;;;;;5053925;28;20271;-67
2023/02/19 11:41:19;;;;;;;3.08;2.20;;;7.50;99.90;;;;;;5056006;28;20213;-70
2023/02/19 11:44:03;;;;;;;3.35;2.03;;;7.80;99.90;;;;;;5054588;28;20638;-67
2023/02/19 11:46:37;;;;;;;3.83;2.35;;;7.90;99.90;;;;;;5054469;28;20186;-68
2023/02/19 11:49:17;;;;;;;5.90;2.60;;;7.90;99.90;;;;;;5054470;28;20224;-67
2023/02/19 11:52:11;;;;;;;3.38;1.50;;;7.80;99.90;;;;;;5054898;28;20206;-68
2023/02/19 11:54:49;;;;;;;5.20;1.55;;;7.60;99.90;;;;;;5054792;28;20189;-67
2023/02/19 11:57:30;;;;;;;2.42;1.48;;;7.50;99.90;;;;;;5054247;28;20190;-68
2023/02/19 12:00:12;;;;;;;3.55;2.05;;;7.40;99.90;;;;;;5054256;28;20226;-67
2023/02/19 12:03:15;;;;;;;2.28;1.95;;;7.40;99.90;;;;;;5054635;28;20261;-67
2023/02/19 12:06:01;;;;;;;4.50;1.70;;;7.50;99.90;;;;;;5050822;28;20206;-68
2023/02/19 12:08:54;;;;;;;5.60;1.65;;;7.70;99.90;;;;;;5054490;28;20229;-65
2023/02/19 12:11:37;;;;;;;4.63;1.55;;;7.70;99.90;;;;;;5043523;28;20198;-67
2023/02/19 12:14:25;;;;;;;3.50;1.70;;;7.70;99.90;;;;;;5054523;28;20186;-68
2023/02/19 12:17:00;;;;;;;2.10;1.80;;;7.70;99.90;;;;;;5056055;28;20186;-66
2023/02/19 12:19:52;;;;;;;2.28;1.60;;;7.70;99.90;;;;;;5056611;28;20225;-66
2023/02/19 12:22:30;;;;;;;6.40;1.90;;;7.70;99.90;;;;;;5054997;28;20186;-67
2023/02/19 12:25:25;;;;;;;2.95;1.40;;;7.70;99.90;;;;;;5053903;28;20196;-67
2023/02/19 12:28:25;;;;;;;1.35;1.23;;;7.80;99.90;;;;;;5055811;28;20186;-66
2023/02/19 12:31:14;;;;;;;2.97;1.00;;;7.80;99.60;;;;;;5058472;28;20190;-66
2023/02/19 12:34:03;;;;;;;3.85;1.40;;;7.90;99.00;;;;;;5057945;28;20206;-67
2023/02/19 12:36:40;;;;;;;2.35;1.48;;;8.00;98.40;;;;;;5058222;28;20187;-67
2023/02/19 12:39:16;;;;;;;3.72;1.50;;;8.10;97.90;;;;;;5058345;28;20234;-67
2023/02/19 12:41:52;;;;;;;4.15;1.80;;;8.30;96.60;;;;;;5058471;28;20205;-67
2023/02/19 12:44:26;;;;;;;3.00;1.63;;;8.20;95.90;;;;;;5057886;28;20189;-68
2023/02/19 12:47:00;;;;;;;2.40;1.30;;;8.20;96.50;;;;;;5058306;28;20206;-67
2023/02/19 12:49:31;;;;;;;2.50;1.48;;;8.30;96.60;;;;;;5057447;28;20228;-67
2023/02/19 12:52:01;;;;;;;2.75;1.50;;;8.30;95.40;;;;;;5058556;28;20221;-67
2023/02/19 12:54:33;;;;;;;2.08;1.23;;;8.20;95.00;;;;;;5057242;28;20278;-67
2023/02/19 12:57:04;;;;;;;2.63;1.30;;;8.30;94.70;;;;;;5059039;28;20199;-66
2023/02/19 12:59:36;;;;;;;2.90;1.48;;;8.50;94.30;;;;;;5057546;28;20661;-66
2023/02/19 13:02:12;;;;;;;3.42;1.42;;;8.50;91.80;;;;;;5057862;28;20193;-66
2023/02/19 13:04:47;;;;;;;2.25;1.13;;;8.50;91.40;;;;;;5058324;28;20194;-67
2023/02/19 13:07:17;;;;;;;2.78;1.40;;;8.40;91.80;;;;;;5058102;28;20189;-67
2023/02/19 13:09:50;;;;;;;1.85;1.42;;;8.50;92.00;;;;;;5057995;28;20226;-67
2023/02/19 13:12:23;;;;;;;3.70;1.33;;;8.50;91.70;;;;;;5057542;28;20201;-66
2023/02/19 13:14:56;;;;;;;2.20;1.52;;;8.60;91.30;;;;;;5057994;28;20200;-66
2023/02/19 13:17:28;;;;;;;3.33;1.85;;;8.50;88.80;;;;;;5056661;28;20191;-66
2023/02/19 13:20:00;;;;;;;3.58;1.15;;;8.40;88.80;;;;;;5062608;28;20222;-66
2023/02/19 13:25:19;;;;;;;1.80;1.40;;;8.30;88.80;;;;;;5067786;28;20206;-67
2023/02/19 13:28:17;;;;;;;3.47;1.30;;;8.30;89.70;;;;;;5068129;28;20202;-67
2023/02/19 13:31:01;;;;;;;2.28;1.20;;;8.30;89.00;;;;;;5068727;28;20182;-67
2023/02/19 13:33:37;;;;;;;2.10;1.23;;;8.30;89.10;;;;;;5067915;28;20232;-67
2023/02/19 13:36:16;;;;;;;2.65;1.42;;;8.30;89.20;;;;;;5062309;28;20186;-67
2023/02/19 13:38:45;;;;;;;1.45;1.05;;;8.30;84.50;;;;;;5064510;28;20225;-68
2023/02/19 13:41:21;;;;;;;2.00;1.13;;;8.20;81.90;;;;;;5064513;28;20212;-67
2023/02/19 13:43:57;;;;;;;2.33;1.75;;;8.10;80.20;;;;;;5062926;28;20205;-67
2023/02/19 13:46:25;;;;;;;1.52;1.10;;;8.00;80.30;;;;;;5061333;28;20193;-67
2023/02/19 13:49:33;;;;;;;2.47;1.15;;;7.90;79.70;;;;;;5057133;28;20222;-67